sensor_id;sensor_type;location;lat;lon;timestamp;temperature;humidity
21508;DHT22;10915;54.352;9.074;2023-03-21T00:00:29;8.40;99.90
21508;DHT22;10915;54.352;9.074;2023-03-21T00:02:55;8.40;99.90
21508;DHT22;10915;54.352;9.074;2023-03-21T00:05:21;8.40;99.90
21508;DHT22;10915;54.352;9.074;2023-03-21T00:07:46;8.40;99.90
21508;DHT22;10915;54.352;9.074;2023-03-21T00:10:12;8.40;99.90
21508;DHT22;10915;54.352;9.074;2023-03-21T00:12:38;8.40;99.90
21508;DHT22;10915;54.352;9.074;2023-03-21T00:15:06;8.40;99.90
21508;DHT22;10915;54.352;9.074;2023-03-21T00:17:32;8.40;99.90
21508;DHT22;10915;54.352;9.074;2023-03-21T00:19:59;8.50;99.90
21508;DHT22;10915;54.352;9.074;2023-03-21T00:22:26;8.40;99.90
21508;DHT22;10915;54.352;9.074;2023-03-21T00:24:53;8.40;99.90
21508;DHT22;10915;54.352;9.074;2023-03-21T00:27:19;8.50;99.90
21508;DHT22;10915;54.352;9.074;2023-03-21T00:29:45;8.40;99.90
21508;DHT22;10915;54.352;9.074;2023-03-21T00:32:11;8.40;99.90
21508;DHT22;10915;54.352;9.074;2023-03-21T00:34:36;8.40;99.90
21508;DHT22;10915;54.352;9.074;2023-03-21T00:37:05;8.40;99.90
21508;DHT22;10915;54.352;9.074;2023-03-21T00:39:32;8.40;99.90
21508;DHT22;10915;54.352;9.074;2023-03-21T00:41:58;8.40;99.90
21508;DHT22;10915;54.352;9.074;2023-03-21T00:44:23;8.40;99.90
21508;DHT22;10915;54.352;9.074;2023-03-21T00:46:50;8.40;99.90
21508;DHT22;10915;54.352;9.074;2023-03-21T00:49:15;8.40;99.90
21508;DHT22;10915;54.352;9.074;2023-03-21T00:51:41;8.40;99.90
21508;DHT22;10915;54.352;9.074;2023-03-21T00:54:10;8.40;99.90
21508;DHT22;10915;54.352;9.074;2023-03-21T00:56:36;8.40;99.90
21508;DHT22;10915;54.352;9.074;2023-03-21T00:59:02;8.40;99.90
21508;DHT22;10915;54.352;9.074;2023-03-21T01:01:28;8.50;99.90
21508;DHT22;10915;54.352;9.074;2023-03-21T01:04:00;8.50;99.90
21508;DHT22;10915;54.352;9.074;2023-03-21T01:06:35;8.50;99.90
21508;DHT22;10915;54.352;9.074;2023-03-21T01:09:04;8.50;99.90
21508;DHT22;10915;54.352;9.074;2023-03-21T01:11:30;8.50;99.90
21508;DHT22;10915;54.352;9.074;2023-03-21T01:13:57;8.50;99.90
21508;DHT22;10915;54.352;9.074;2023-03-21T01:16:23;8.50;99.90
21508;DHT22;10915;54.352;9.074;2023-03-21T01:18:50;8.50;99.90
21508;DHT22;10915;54.352;9.074;2023-03-21T01:21:16;8.50;99.90
21508;DHT22;10915;54.352;9.074;2023-03-21T01:23:42;8.50;99.90
21508;DHT22;10915;54.352;9.074;2023-03-21T01:26:09;8.50;99.90
21508;DHT22;10915;54.352;9.074;2023-03-21T01:28:37;8.50;99.90
21508;DHT22;10915;54.352;9.074;2023-03-21T01:31:04;8.50;99.90
21508;DHT22;10915;54.352;9.074;2023-03-21T01:33:31;8.50;99.90
21508;DHT22;10915;54.352;9.074;2023-03-21T01:35:57;8.50;99.90
21508;DHT22;10915;54.352;9.074;2023-03-21T01:38:24;8.50;99.90
21508;DHT22;10915;54.352;9.074;2023-03-21T01:40:50;8.50;99.90
21508;DHT22;10915;54.352;9.074;2023-03-21T01:48:36;8.50;99.90
21508;DHT22;10915;54.352;9.074;2023-03-21T01:51:03;8.50;99.90
21508;DHT22;10915;54.352;9.074;2023-03-21T01:53:30;8.50;99.90
21508;DHT22;10915;54.352;9.074;2023-03-21T01:56:05;8.50;99.90
21508;DHT22;10915;54.352;9.074;2023-03-21T01:58:32;8.50;99.90
21508;DHT22;10915;54.352;9.074;2023-03-21T02:00:59;8.50;99.90
21508;DHT22;10915;54.352;9.074;2023-03-21T02:03:25;8.50;99.90
21508;DHT22;10915;54.352;9.074;2023-03-21T02:05:58;8.50;99.90
21508;DHT22;10915;54.352;9.074;2023-03-21T02:08:26;8.50;99.90
21508;DHT22;10915;54.352;9.074;2023-03-21T02:10:52;8.50;99.90
21508;DHT22;10915;54.352;9.074;2023-03-21T02:13:18;8.50;99.90
21508;DHT22;10915;54.352;9.074;2023-03-21T02:15:57;8.50;99.90
21508;DHT22;10915;54.352;9.074;2023-03-21T02:21:42;8.50;99.90
21508;DHT22;10915;54.352;9.074;2023-03-21T02:24:44;8.50;99.90
21508;DHT22;10915;54.352;9.074;2023-03-21T02:27:17;8.50;99.90
21508;DHT22;10915;54.352;9.074;2023-03-21T02:37:53;8.50;99.90
21508;DHT22;10915;54.352;9.074;2023-03-21T02:43:19;8.50;99.90
21508;DHT22;10915;54.352;9.074;2023-03-21T02:48:58;8.50;99.90
21508;DHT22;10915;54.352;9.074;2023-03-21T02:51:26;8.50;99.90
21508;DHT22;10915;54.352;9.074;2023-03-21T02:53:58;8.50;99.90
21508;DHT22;10915;54.352;9.074;2023-03-21T02:56:26;8.50;99.90
21508;DHT22;10915;54.352;9.074;2023-03-21T02:58:52;8.50;99.90
21508;DHT22;10915;54.352;9.074;2023-03-21T03:01:18;8.50;99.90
21508;DHT22;10915;54.352;9.074;2023-03-21T03:03:44;8.50;99.90
21508;DHT22;10915;54.352;9.074;2023-03-21T03:06:21;8.50;99.90
21508;DHT22;10915;54.352;9.074;2023-03-21T03:09:05;8.50;99.90
21508;DHT22;10915;54.352;9.074;2023-03-21T03:11:36;8.50;99.90
21508;DHT22;10915;54.352;9.074;2023-03-21T03:19:35;8.50;99.90
21508;DHT22;10915;54.352;9.074;2023-03-21T03:22:11;8.50;99.90
21508;DHT22;10915;54.352;9.074;2023-03-21T03:24:46;8.50;99.90
21508;DHT22;10915;54.352;9.074;2023-03-21T03:27:20;8.50;99.90
21508;DHT22;10915;54.352;9.074;2023-03-21T03:29:48;8.50;99.90
21508;DHT22;10915;54.352;9.074;2023-03-21T03:32:16;8.50;99.90
21508;DHT22;10915;54.352;9.074;2023-03-21T03:34:49;8.50;99.90
21508;DHT22;10915;54.352;9.074;2023-03-21T03:37:20;8.50;99.90
21508;DHT22;10915;54.352;9.074;2023-03-21T03:40:03;8.50;99.90
21508;DHT22;10915;54.352;9.074;2023-03-21T03:42:34;8.50;99.90
21508;DHT22;10915;54.352;9.074;2023-03-21T03:45:01;8.50;99.90
21508;DHT22;10915;54.352;9.074;2023-03-21T03:52:33;8.50;99.90
21508;DHT22;10915;54.352;9.074;2023-03-21T03:55:02;8.50;99.90
21508;DHT22;10915;54.352;9.074;2023-03-21T03:57:28;8.50;99.90
21508;DHT22;10915;54.352;9.074;2023-03-21T03:59:54;8.50;99.90
21508;DHT22;10915;54.352;9.074;2023-03-21T04:02:20;8.50;99.90
21508;DHT22;10915;54.352;9.074;2023-03-21T04:04:46;8.50;99.90
21508;DHT22;10915;54.352;9.074;2023-03-21T04:07:12;8.40;99.90
21508;DHT22;10915;54.352;9.074;2023-03-21T04:09:38;8.40;99.90
21508;DHT22;10915;54.352;9.074;2023-03-21T04:12:04;8.30;99.90
21508;DHT22;10915;54.352;9.074;2023-03-21T04:14:30;8.30;99.90
21508;DHT22;10915;54.352;9.074;2023-03-21T04:16:55;8.30;99.90
21508;DHT22;10915;54.352;9.074;2023-03-21T04:19:21;8.30;99.90
21508;DHT22;10915;54.352;9.074;2023-03-21T04:21:47;8.30;99.90
21508;DHT22;10915;54.352;9.074;2023-03-21T04:24:13;8.30;99.90
21508;DHT22;10915;54.352;9.074;2023-03-21T04:26:39;8.20;99.90
21508;DHT22;10915;54.352;9.074;2023-03-21T04:29:05;8.20;99.90
21508;DHT22;10915;54.352;9.074;2023-03-21T04:31:31;8.20;99.90
21508;DHT22;10915;54.352;9.074;2023-03-21T04:34:00;8.20;99.90
21508;DHT22;10915;54.352;9.074;2023-03-21T04:36:26;8.30;99.90
21508;DHT22;10915;54.352;9.074;2023-03-21T04:38:57;8.30;99.90
21508;DHT22;10915;54.352;9.074;2023-03-21T04:41:27;8.30;99.90
21508;DHT22;10915;54.352;9.074;2023-03-21T04:43:53;8.30;99.90
21508;DHT22;10915;54.352;9.074;2023-03-21T04:46:19;8.30;99.90
21508;DHT22;10915;54.352;9.074;2023-03-21T04:48:45;8.30;99.90
21508;DHT22;10915;54.352;9.074;2023-03-21T04:51:12;8.30;99.90
21508;DHT22;10915;54.352;9.074;2023-03-21T04:53:37;8.30;99.90
21508;DHT22;10915;54.352;9.074;2023-03-21T04:56:04;8.30;99.90
21508;DHT22;10915;54.352;9.074;2023-03-21T04:58:31;8.30;99.90
21508;DHT22;10915;54.352;9.074;2023-03-21T05:00:56;8.30;99.90
21508;DHT22;10915;54.352;9.074;2023-03-21T05:03:23;8.30;99.90
21508;DHT22;10915;54.352;9.074;2023-03-21T05:05:49;8.30;99.90
21508;DHT22;10915;54.352;9.074;2023-03-21T05:08:15;8.30;99.90
21508;DHT22;10915;54.352;9.074;2023-03-21T05:10:40;8.30;99.90
21508;DHT22;10915;54.352;9.074;2023-03-21T05:13:06;8.30;99.90
21508;DHT22;10915;54.352;9.074;2023-03-21T05:15:32;8.30;99.90
21508;DHT22;10915;54.352;9.074;2023-03-21T05:17:58;8.20;99.90
21508;DHT22;10915;54.352;9.074;2023-03-21T05:20:25;8.30;99.90
21508;DHT22;10915;54.352;9.074;2023-03-21T05:22:51;8.20;99.90
21508;DHT22;10915;54.352;9.074;2023-03-21T05:25:17;8.30;99.90
21508;DHT22;10915;54.352;9.074;2023-03-21T05:27:46;8.30;99.90
21508;DHT22;10915;54.352;9.074;2023-03-21T05:30:19;8.30;99.90
21508;DHT22;10915;54.352;9.074;2023-03-21T05:32:45;8.30;99.90
21508;DHT22;10915;54.352;9.074;2023-03-21T05:35:11;8.30;99.90
21508;DHT22;10915;54.352;9.074;2023-03-21T05:37:37;8.30;99.90
21508;DHT22;10915;54.352;9.074;2023-03-21T05:40:04;8.40;99.90
21508;DHT22;10915;54.352;9.074;2023-03-21T05:42:33;8.40;99.90
21508;DHT22;10915;54.352;9.074;2023-03-21T05:44:59;8.40;99.90
21508;DHT22;10915;54.352;9.074;2023-03-21T05:47:25;8.40;99.90
21508;DHT22;10915;54.352;9.074;2023-03-21T05:49:51;8.40;99.90
21508;DHT22;10915;54.352;9.074;2023-03-21T05:52:16;8.40;99.90
21508;DHT22;10915;54.352;9.074;2023-03-21T05:54:42;8.40;99.90
21508;DHT22;10915;54.352;9.074;2023-03-21T05:57:08;8.50;99.90
21508;DHT22;10915;54.352;9.074;2023-03-21T05:59:34;8.50;99.90
21508;DHT22;10915;54.352;9.074;2023-03-21T06:01:59;8.60;99.90
21508;DHT22;10915;54.352;9.074;2023-03-21T06:04:25;8.60;99.90
21508;DHT22;10915;54.352;9.074;2023-03-21T06:06:51;8.60;99.90
21508;DHT22;10915;54.352;9.074;2023-03-21T06:09:18;8.70;99.90
21508;DHT22;10915;54.352;9.074;2023-03-21T06:11:47;8.60;99.90
21508;DHT22;10915;54.352;9.074;2023-03-21T06:14:14;8.60;99.90
21508;DHT22;10915;54.352;9.074;2023-03-21T06:16:40;8.60;99.90
21508;DHT22;10915;54.352;9.074;2023-03-21T06:19:06;8.60;99.90
21508;DHT22;10915;54.352;9.074;2023-03-21T06:21:32;8.60;99.90
21508;DHT22;10915;54.352;9.074;2023-03-21T06:23:57;8.70;99.90
21508;DHT22;10915;54.352;9.074;2023-03-21T06:26:23;8.70;99.90
21508;DHT22;10915;54.352;9.074;2023-03-21T06:28:49;8.80;99.90
21508;DHT22;10915;54.352;9.074;2023-03-21T06:31:15;8.80;99.90
21508;DHT22;10915;54.352;9.074;2023-03-21T06:33:41;8.80;99.90
21508;DHT22;10915;54.352;9.074;2023-03-21T06:36:07;8.80;99.90
21508;DHT22;10915;54.352;9.074;2023-03-21T06:41:08;8.80;99.90
21508;DHT22;10915;54.352;9.074;2023-03-21T06:43:34;8.80;99.90
21508;DHT22;10915;54.352;9.074;2023-03-21T06:46:00;8.80;99.90
21508;DHT22;10915;54.352;9.074;2023-03-21T06:48:27;8.80;99.90
21508;DHT22;10915;54.352;9.074;2023-03-21T06:50:53;8.90;99.90
21508;DHT22;10915;54.352;9.074;2023-03-21T06:53:20;8.90;99.90
21508;DHT22;10915;54.352;9.074;2023-03-21T06:55:55;8.90;99.90
21508;DHT22;10915;54.352;9.074;2023-03-21T06:58:21;8.90;99.90
21508;DHT22;10915;54.352;9.074;2023-03-21T07:00:47;8.90;99.90
21508;DHT22;10915;54.352;9.074;2023-03-21T07:03:12;8.90;99.90
21508;DHT22;10915;54.352;9.074;2023-03-21T07:05:39;8.90;99.90
21508;DHT22;10915;54.352;9.074;2023-03-21T07:08:06;9.00;99.90
21508;DHT22;10915;54.352;9.074;2023-03-21T07:10:38;9.00;99.90
21508;DHT22;10915;54.352;9.074;2023-03-21T07:13:03;9.00;99.90
21508;DHT22;10915;54.352;9.074;2023-03-21T07:15:29;9.10;99.90
21508;DHT22;10915;54.352;9.074;2023-03-21T07:17:54;9.10;99.90
21508;DHT22;10915;54.352;9.074;2023-03-21T07:20:20;9.10;99.90
21508;DHT22;10915;54.352;9.074;2023-03-21T07:22:46;9.20;99.90
21508;DHT22;10915;54.352;9.074;2023-03-21T07:25:12;9.20;99.90
21508;DHT22;10915;54.352;9.074;2023-03-21T07:27:37;9.20;99.90
21508;DHT22;10915;54.352;9.074;2023-03-21T07:30:04;9.30;99.90
21508;DHT22;10915;54.352;9.074;2023-03-21T07:32:33;9.30;99.90
21508;DHT22;10915;54.352;9.074;2023-03-21T07:35:00;9.40;99.90
21508;DHT22;10915;54.352;9.074;2023-03-21T07:37:26;9.40;99.90
21508;DHT22;10915;54.352;9.074;2023-03-21T07:39:52;9.50;99.90
21508;DHT22;10915;54.352;9.074;2023-03-21T07:42:18;9.50;99.90
21508;DHT22;10915;54.352;9.074;2023-03-21T07:44:44;9.50;99.90
21508;DHT22;10915;54.352;9.074;2023-03-21T07:47:10;9.50;99.90
21508;DHT22;10915;54.352;9.074;2023-03-21T07:49:36;9.50;99.90
21508;DHT22;10915;54.352;9.074;2023-03-21T07:52:02;9.50;99.90
21508;DHT22;10915;54.352;9.074;2023-03-21T07:54:28;9.50;99.90
21508;DHT22;10915;54.352;9.074;2023-03-21T07:56:55;9.50;99.90
21508;DHT22;10915;54.352;9.074;2023-03-21T07:59:21;9.50;99.90
21508;DHT22;10915;54.352;9.074;2023-03-21T08:01:47;9.60;99.90
21508;DHT22;10915;54.352;9.074;2023-03-21T08:04:13;9.60;99.90
21508;DHT22;10915;54.352;9.074;2023-03-21T08:06:39;9.70;99.90
21508;DHT22;10915;54.352;9.074;2023-03-21T08:09:05;9.70;99.90
21508;DHT22;10915;54.352;9.074;2023-03-21T08:11:31;9.70;99.90
21508;DHT22;10915;54.352;9.074;2023-03-21T08:13:58;9.80;99.90
21508;DHT22;10915;54.352;9.074;2023-03-21T08:16:24;9.80;99.90
21508;DHT22;10915;54.352;9.074;2023-03-21T08:18:49;9.90;99.90
21508;DHT22;10915;54.352;9.074;2023-03-21T08:21:15;9.90;99.90
21508;DHT22;10915;54.352;9.074;2023-03-21T08:23:41;10.00;99.90
21508;DHT22;10915;54.352;9.074;2023-03-21T08:26:07;10.00;99.90
21508;DHT22;10915;54.352;9.074;2023-03-21T08:28:33;10.10;99.90
21508;DHT22;10915;54.352;9.074;2023-03-21T08:31:06;10.10;99.90
21508;DHT22;10915;54.352;9.074;2023-03-21T08:33:32;10.20;99.90
21508;DHT22;10915;54.352;9.074;2023-03-21T08:35:59;10.20;99.90
21508;DHT22;10915;54.352;9.074;2023-03-21T08:38:24;10.20;99.90
21508;DHT22;10915;54.352;9.074;2023-03-21T08:40:54;10.30;99.90
21508;DHT22;10915;54.352;9.074;2023-03-21T08:43:20;10.30;99.90
21508;DHT22;10915;54.352;9.074;2023-03-21T08:45:45;10.40;99.90
21508;DHT22;10915;54.352;9.074;2023-03-21T08:48:11;10.40;99.90
21508;DHT22;10915;54.352;9.074;2023-03-21T08:50:37;10.50;99.90
21508;DHT22;10915;54.352;9.074;2023-03-21T08:53:02;10.50;99.90
21508;DHT22;10915;54.352;9.074;2023-03-21T08:55:28;10.50;99.90
21508;DHT22;10915;54.352;9.074;2023-03-21T08:57:56;10.50;99.90
21508;DHT22;10915;54.352;9.074;2023-03-21T09:00:22;10.60;99.90
21508;DHT22;10915;54.352;9.074;2023-03-21T09:02:49;10.60;99.90
21508;DHT22;10915;54.352;9.074;2023-03-21T09:05:16;10.70;99.90
21508;DHT22;10915;54.352;9.074;2023-03-21T09:07:43;10.70;99.90
21508;DHT22;10915;54.352;9.074;2023-03-21T09:10:12;10.70;99.90
21508;DHT22;10915;54.352;9.074;2023-03-21T09:12:38;10.70;99.90
21508;DHT22;10915;54.352;9.074;2023-03-21T09:15:06;10.70;99.90
21508;DHT22;10915;54.352;9.074;2023-03-21T09:17:32;10.70;99.90
21508;DHT22;10915;54.352;9.074;2023-03-21T09:19:58;10.70;99.90
21508;DHT22;10915;54.352;9.074;2023-03-21T09:22:25;10.80;99.90
21508;DHT22;10915;54.352;9.074;2023-03-21T09:24:52;10.80;99.90
21508;DHT22;10915;54.352;9.074;2023-03-21T09:27:18;10.90;99.90
21508;DHT22;10915;54.352;9.074;2023-03-21T09:29:49;10.90;99.90
21508;DHT22;10915;54.352;9.074;2023-03-21T09:32:16;10.90;99.90
21508;DHT22;10915;54.352;9.074;2023-03-21T09:34:43;10.90;99.90
21508;DHT22;10915;54.352;9.074;2023-03-21T09:37:09;11.00;99.90
21508;DHT22;10915;54.352;9.074;2023-03-21T09:39:36;11.00;99.90
21508;DHT22;10915;54.352;9.074;2023-03-21T09:47:43;11.10;99.90
21508;DHT22;10915;54.352;9.074;2023-03-21T09:50:18;11.10;99.90
21508;DHT22;10915;54.352;9.074;2023-03-21T09:55:24;11.10;99.90
21508;DHT22;10915;54.352;9.074;2023-03-21T09:58:06;11.10;99.90
21508;DHT22;10915;54.352;9.074;2023-03-21T10:00:38;11.10;99.90
21508;DHT22;10915;54.352;9.074;2023-03-21T10:03:31;11.10;99.90
21508;DHT22;10915;54.352;9.074;2023-03-21T10:06:03;11.10;99.90
21508;DHT22;10915;54.352;9.074;2023-03-21T10:08:35;11.20;99.90
21508;DHT22;10915;54.352;9.074;2023-03-21T10:11:24;11.30;99.90
21508;DHT22;10915;54.352;9.074;2023-03-21T10:14:01;11.30;99.90
21508;DHT22;10915;54.352;9.074;2023-03-21T10:16:42;11.40;99.90
21508;DHT22;10915;54.352;9.074;2023-03-21T10:19:14;11.50;99.90
21508;DHT22;10915;54.352;9.074;2023-03-21T10:21:44;11.50;99.90
21508;DHT22;10915;54.352;9.074;2023-03-21T10:24:13;11.50;99.90
21508;DHT22;10915;54.352;9.074;2023-03-21T10:26:40;11.50;99.90
21508;DHT22;10915;54.352;9.074;2023-03-21T10:29:06;11.50;99.90
21508;DHT22;10915;54.352;9.074;2023-03-21T10:31:34;11.40;99.90
21508;DHT22;10915;54.352;9.074;2023-03-21T10:34:04;11.40;99.90
21508;DHT22;10915;54.352;9.074;2023-03-21T10:36:31;11.50;99.90
21508;DHT22;10915;54.352;9.074;2023-03-21T10:39:03;11.40;99.90
21508;DHT22;10915;54.352;9.074;2023-03-21T10:41:30;11.50;99.90
21508;DHT22;10915;54.352;9.074;2023-03-21T10:44:14;11.50;99.90
21508;DHT22;10915;54.352;9.074;2023-03-21T10:46:55;11.50;99.90
21508;DHT22;10915;54.352;9.074;2023-03-21T10:49:21;11.50;99.90
21508;DHT22;10915;54.352;9.074;2023-03-21T10:51:52;11.40;99.90
21508;DHT22;10915;54.352;9.074;2023-03-21T10:54:21;11.50;99.90
21508;DHT22;10915;54.352;9.074;2023-03-21T10:57:18;11.40;99.90
21508;DHT22;10915;54.352;9.074;2023-03-21T10:59:52;11.40;99.90
21508;DHT22;10915;54.352;9.074;2023-03-21T11:02:28;11.50;99.90
21508;DHT22;10915;54.352;9.074;2023-03-21T11:04:55;11.50;99.90
21508;DHT22;10915;54.352;9.074;2023-03-21T11:07:21;11.60;99.90
21508;DHT22;10915;54.352;9.074;2023-03-21T11:09:55;11.60;99.90
21508;DHT22;10915;54.352;9.074;2023-03-21T11:12:30;11.60;99.90
21508;DHT22;10915;54.352;9.074;2023-03-21T11:15:29;11.70;99.90
21508;DHT22;10915;54.352;9.074;2023-03-21T11:17:57;11.70;99.90
21508;DHT22;10915;54.352;9.074;2023-03-21T11:20:23;11.80;99.90
21508;DHT22;10915;54.352;9.074;2023-03-21T11:22:48;11.90;99.90
21508;DHT22;10915;54.352;9.074;2023-03-21T11:25:37;11.90;99.90
21508;DHT22;10915;54.352;9.074;2023-03-21T11:28:13;12.00;99.90
21508;DHT22;10915;54.352;9.074;2023-03-21T11:30:59;12.00;99.90
21508;DHT22;10915;54.352;9.074;2023-03-21T11:36:05;11.90;99.90
21508;DHT22;10915;54.352;9.074;2023-03-21T11:38:36;11.90;99.90
21508;DHT22;10915;54.352;9.074;2023-03-21T11:41:03;11.90;99.90
21508;DHT22;10915;54.352;9.074;2023-03-21T11:48:23;11.90;99.90
21508;DHT22;10915;54.352;9.074;2023-03-21T11:50:55;11.90;99.90
21508;DHT22;10915;54.352;9.074;2023-03-21T12:01:40;12.10;99.90
21508;DHT22;10915;54.352;9.074;2023-03-21T12:04:24;12.20;99.90
21508;DHT22;10915;54.352;9.074;2023-03-21T12:12:34;12.10;99.90
21508;DHT22;10915;54.352;9.074;2023-03-21T12:17:46;12.00;99.90
21508;DHT22;10915;54.352;9.074;2023-03-21T12:28:36;11.90;99.90
21508;DHT22;10915;54.352;9.074;2023-03-21T12:31:20;12.00;99.90
21508;DHT22;10915;54.352;9.074;2023-03-21T12:36:24;12.10;99.90
21508;DHT22;10915;54.352;9.074;2023-03-21T12:44:18;12.00;99.90
21508;DHT22;10915;54.352;9.074;2023-03-21T12:47:01;12.00;99.90
21508;DHT22;10915;54.352;9.074;2023-03-21T12:49:48;12.00;99.90
21508;DHT22;10915;54.352;9.074;2023-03-21T12:52:24;12.00;99.90
21508;DHT22;10915;54.352;9.074;2023-03-21T12:54:55;12.10;99.90
21508;DHT22;10915;54.352;9.074;2023-03-21T12:57:30;12.00;99.90
21508;DHT22;10915;54.352;9.074;2023-03-21T13:00:48;12.00;99.90
21508;DHT22;10915;54.352;9.074;2023-03-21T13:03:00;12.00;99.90
21508;DHT22;10915;54.352;9.074;2023-03-21T13:10:45;11.90;99.90
21508;DHT22;10915;54.352;9.074;2023-03-21T13:16:18;11.90;99.90
21508;DHT22;10915;54.352;9.074;2023-03-21T13:24:18;11.90;99.90
21508;DHT22;10915;54.352;9.074;2023-03-21T13:26:47;11.90;99.90
21508;DHT22;10915;54.352;9.074;2023-03-21T13:31:44;11.90;99.90
21508;DHT22;10915;54.352;9.074;2023-03-21T13:34:12;11.90;99.90
21508;DHT22;10915;54.352;9.074;2023-03-21T13:36:38;11.80;99.90
21508;DHT22;10915;54.352;9.074;2023-03-21T13:39:20;11.80;99.90
21508;DHT22;10915;54.352;9.074;2023-03-21T13:41:49;11.80;99.90
21508;DHT22;10915;54.352;9.074;2023-03-21T13:49:28;11.70;99.90
21508;DHT22;10915;54.352;9.074;2023-03-21T13:51:55;11.70;99.90
21508;DHT22;10915;54.352;9.074;2023-03-21T13:57:04;11.70;99.90
21508;DHT22;10915;54.352;9.074;2023-03-21T13:59:43;11.60;99.90
21508;DHT22;10915;54.352;9.074;2023-03-21T14:02:21;11.60;99.90
21508;DHT22;10915;54.352;9.074;2023-03-21T14:04:56;11.60;99.90
21508;DHT22;10915;54.352;9.074;2023-03-21T14:07:28;11.50;99.90
21508;DHT22;10915;54.352;9.074;2023-03-21T14:10:02;11.50;99.90
21508;DHT22;10915;54.352;9.074;2023-03-21T14:12:33;11.50;99.90
21508;DHT22;10915;54.352;9.074;2023-03-21T14:15:05;11.40;99.90
21508;DHT22;10915;54.352;9.074;2023-03-21T14:17:33;11.40;99.90
21508;DHT22;10915;54.352;9.074;2023-03-21T14:20:05;11.30;99.90
21508;DHT22;10915;54.352;9.074;2023-03-21T14:22:37;11.20;99.90
21508;DHT22;10915;54.352;9.074;2023-03-21T14:25:13;11.10;99.90
21508;DHT22;10915;54.352;9.074;2023-03-21T14:27:42;11.10;99.90
21508;DHT22;10915;54.352;9.074;2023-03-21T14:30:26;11.10;99.90
21508;DHT22;10915;54.352;9.074;2023-03-21T14:32:55;11.10;99.90
21508;DHT22;10915;54.352;9.074;2023-03-21T14:35:24;11.00;99.90
21508;DHT22;10915;54.352;9.074;2023-03-21T14:37:52;11.00;99.90
21508;DHT22;10915;54.352;9.074;2023-03-21T14:40:26;11.00;99.90
21508;DHT22;10915;54.352;9.074;2023-03-21T14:42:53;11.00;99.90
21508;DHT22;10915;54.352;9.074;2023-03-21T14:45:27;11.00;99.90
21508;DHT22;10915;54.352;9.074;2023-03-21T14:48:14;11.00;99.90
21508;DHT22;10915;54.352;9.074;2023-03-21T14:50:57;10.90;99.90
21508;DHT22;10915;54.352;9.074;2023-03-21T14:53:29;10.80;99.90
21508;DHT22;10915;54.352;9.074;2023-03-21T14:58:39;10.90;99.90
21508;DHT22;10915;54.352;9.074;2023-03-21T15:01:10;10.90;99.90
21508;DHT22;10915;54.352;9.074;2023-03-21T15:03:37;10.90;99.90
21508;DHT22;10915;54.352;9.074;2023-03-21T15:06:03;10.90;99.90
21508;DHT22;10915;54.352;9.074;2023-03-21T15:08:28;10.90;99.90
21508;DHT22;10915;54.352;9.074;2023-03-21T15:11:04;11.00;99.90
21508;DHT22;10915;54.352;9.074;2023-03-21T15:13:53;10.90;99.90
21508;DHT22;10915;54.352;9.074;2023-03-21T15:16:19;10.90;99.90
21508;DHT22;10915;54.352;9.074;2023-03-21T15:18:46;10.80;99.90
21508;DHT22;10915;54.352;9.074;2023-03-21T15:23:53;10.90;99.90
21508;DHT22;10915;54.352;9.074;2023-03-21T15:26:23;10.90;99.90
21508;DHT22;10915;54.352;9.074;2023-03-21T15:28:55;11.00;99.90
21508;DHT22;10915;54.352;9.074;2023-03-21T15:31:34;11.00;99.90
21508;DHT22;10915;54.352;9.074;2023-03-21T15:34:00;11.00;99.90
21508;DHT22;10915;54.352;9.074;2023-03-21T15:36:32;11.00;99.90
21508;DHT22;10915;54.352;9.074;2023-03-21T15:39:01;11.10;99.90
21508;DHT22;10915;54.352;9.074;2023-03-21T15:41:31;11.10;99.90
21508;DHT22;10915;54.352;9.074;2023-03-21T15:44:12;11.10;99.90
21508;DHT22;10915;54.352;9.074;2023-03-21T15:46:45;11.10;99.90
21508;DHT22;10915;54.352;9.074;2023-03-21T15:52:04;11.00;99.90
21508;DHT22;10915;54.352;9.074;2023-03-21T15:57:25;11.00;99.90
21508;DHT22;10915;54.352;9.074;2023-03-21T15:59:57;11.00;99.90
21508;DHT22;10915;54.352;9.074;2023-03-21T16:02:28;11.00;99.90
21508;DHT22;10915;54.352;9.074;2023-03-21T16:05:16;10.90;99.90
21508;DHT22;10915;54.352;9.074;2023-03-21T16:07:45;10.90;99.90
21508;DHT22;10915;54.352;9.074;2023-03-21T16:10:28;10.90;99.90
21508;DHT22;10915;54.352;9.074;2023-03-21T16:12:54;10.90;99.90
21508;DHT22;10915;54.352;9.074;2023-03-21T16:15:21;10.90;99.90
21508;DHT22;10915;54.352;9.074;2023-03-21T16:17:53;10.90;99.90
21508;DHT22;10915;54.352;9.074;2023-03-21T16:20:26;10.80;99.90
21508;DHT22;10915;54.352;9.074;2023-03-21T16:22:52;10.90;99.90
21508;DHT22;10915;54.352;9.074;2023-03-21T16:25:18;10.80;99.90
21508;DHT22;10915;54.352;9.074;2023-03-21T16:27:46;10.80;99.90
21508;DHT22;10915;54.352;9.074;2023-03-21T16:30:15;10.80;99.90
21508;DHT22;10915;54.352;9.074;2023-03-21T16:32:42;10.70;99.90
21508;DHT22;10915;54.352;9.074;2023-03-21T16:35:08;10.70;99.90
21508;DHT22;10915;54.352;9.074;2023-03-21T16:37:34;10.70;99.90
21508;DHT22;10915;54.352;9.074;2023-03-21T16:39:59;10.70;99.90
21508;DHT22;10915;54.352;9.074;2023-03-21T16:42:25;10.60;99.90
21508;DHT22;10915;54.352;9.074;2023-03-21T16:44:51;10.60;99.90
21508;DHT22;10915;54.352;9.074;2023-03-21T16:47:20;10.60;99.90
21508;DHT22;10915;54.352;9.074;2023-03-21T16:49:48;10.60;99.90
21508;DHT22;10915;54.352;9.074;2023-03-21T16:52:14;10.60;99.90
21508;DHT22;10915;54.352;9.074;2023-03-21T16:54:40;10.60;99.90
21508;DHT22;10915;54.352;9.074;2023-03-21T16:57:13;10.60;99.90
21508;DHT22;10915;54.352;9.074;2023-03-21T16:59:42;10.50;99.90
21508;DHT22;10915;54.352;9.074;2023-03-21T17:02:13;10.50;99.90
21508;DHT22;10915;54.352;9.074;2023-03-21T17:04:38;10.50;99.90
21508;DHT22;10915;54.352;9.074;2023-03-21T17:07:08;10.60;99.90
21508;DHT22;10915;54.352;9.074;2023-03-21T17:09:39;10.50;99.90
21508;DHT22;10915;54.352;9.074;2023-03-21T17:12:10;10.50;99.90
21508;DHT22;10915;54.352;9.074;2023-03-21T17:14:39;10.60;99.90
21508;DHT22;10915;54.352;9.074;2023-03-21T17:17:08;10.60;99.90
21508;DHT22;10915;54.352;9.074;2023-03-21T17:19:34;10.60;99.90
21508;DHT22;10915;54.352;9.074;2023-03-21T17:21:59;10.50;99.90
21508;DHT22;10915;54.352;9.074;2023-03-21T17:24:25;10.60;99.90
21508;DHT22;10915;54.352;9.074;2023-03-21T17:26:51;10.50;99.90
21508;DHT22;10915;54.352;9.074;2023-03-21T17:29:17;10.50;99.90
21508;DHT22;10915;54.352;9.074;2023-03-21T17:31:42;10.50;99.90
21508;DHT22;10915;54.352;9.074;2023-03-21T17:34:12;10.60;99.90
21508;DHT22;10915;54.352;9.074;2023-03-21T17:36:39;10.60;99.90
21508;DHT22;10915;54.352;9.074;2023-03-21T17:39:09;10.50;99.90
21508;DHT22;10915;54.352;9.074;2023-03-21T17:41:37;10.50;99.90
21508;DHT22;10915;54.352;9.074;2023-03-21T17:44:02;10.50;99.90
21508;DHT22;10915;54.352;9.074;2023-03-21T17:46:33;10.50;99.90
21508;DHT22;10915;54.352;9.074;2023-03-21T17:49:00;10.50;99.90